createdAt,value
2022-09-11T00:03:56.404Z,15.96
2022-09-11T00:09:00.829Z,15.80
2022-09-11T00:14:05.528Z,15.83
2022-09-11T00:19:09.988Z,15.92
2022-09-11T00:24:12.897Z,15.84
2022-09-11T00:29:16.818Z,15.77
2022-09-11T00:34:19.537Z,15.72
2022-09-11T00:39:22.321Z,15.68
2022-09-11T00:45:02.137Z,15.69
2022-09-11T00:50:12.104Z,15.86
2022-09-11T00:55:16.374Z,16.01
2022-09-11T01:00:20.702Z,15.99
2022-09-11T01:05:24.920Z,15.64
2022-09-11T01:10:31.593Z,15.47
2022-09-11T01:15:42.626Z,15.48
2022-09-11T01:20:59.683Z,15.49
2022-09-11T01:26:13.543Z,15.48
2022-09-11T01:31:21.542Z,15.56
2022-09-11T01:36:28.926Z,15.50
2022-09-11T01:41:35.130Z,15.45
2022-09-11T01:46:41.269Z,15.36
2022-09-11T01:51:44.463Z,15.26
2022-09-11T01:56:51.153Z,15.35
2022-09-11T02:02:00.358Z,15.32
2022-09-11T02:07:07.613Z,15.32
2022-09-11T02:12:12.736Z,15.27
2022-09-11T02:17:24.541Z,15.17
2022-09-11T02:22:27.562Z,15.13
2022-09-11T02:27:31.233Z,15.21
2022-09-11T02:32:37.507Z,15.19
2022-09-11T02:37:48.306Z,15.12
2022-09-11T02:43:09.987Z,15.10
2022-09-11T02:48:25.973Z,15.00
2022-09-11T02:53:35.345Z,15.06
2022-09-11T02:58:41.626Z,14.96
2022-09-11T03:03:47.262Z,14.82
2022-09-11T03:08:51.015Z,14.79
2022-09-11T03:13:55.107Z,14.91
2022-09-11T03:18:59.114Z,14.94
2022-09-11T03:24:03.700Z,14.96
2022-09-11T03:29:08.527Z,15.02
2022-09-11T03:34:13.008Z,14.92
2022-09-11T03:39:16.574Z,14.94
2022-09-11T03:44:19.330Z,14.92
2022-09-11T03:49:23.629Z,14.76
2022-09-11T03:54:27.665Z,14.60
2022-09-11T03:59:31.543Z,14.52
2022-09-11T04:04:36.829Z,14.42
2022-09-11T04:09:39.866Z,14.37
2022-09-11T04:14:43.161Z,14.36
2022-09-11T04:19:48.410Z,14.51
2022-09-11T04:24:51.141Z,14.40
2022-09-11T04:29:54.189Z,14.45
2022-09-11T04:34:58.979Z,14.52
2022-09-11T04:40:01.933Z,14.53
2022-09-11T04:45:07.636Z,14.47
2022-09-11T04:50:12.795Z,14.57
2022-09-11T04:55:17.075Z,14.78
2022-09-11T05:00:20.142Z,14.92
2022-09-11T05:05:25.491Z,15.07
2022-09-11T05:10:28.857Z,14.92
2022-09-11T05:15:32.120Z,14.90
2022-09-11T05:20:36.660Z,14.82
2022-09-11T05:25:39.314Z,14.74
2022-09-11T05:30:42.049Z,14.88
2022-09-11T05:35:46.699Z,14.98
2022-09-11T05:40:51.514Z,15.01
2022-09-11T05:45:58.807Z,14.95
2022-09-11T05:51:07.829Z,15.02
2022-09-11T05:56:13.428Z,15.17
2022-09-11T06:01:18.617Z,15.26
2022-09-11T06:06:27.205Z,15.15
2022-09-11T06:11:30.932Z,15.16
2022-09-11T06:16:34.805Z,15.28
2022-09-11T06:21:47.053Z,15.41
2022-09-11T06:27:01.165Z,15.50
2022-09-11T06:32:06.718Z,15.49
2022-09-11T06:37:10.947Z,15.36
2022-09-11T06:42:13.809Z,15.37
2022-09-11T06:47:16.487Z,15.44
2022-09-11T06:52:20.634Z,15.48
2022-09-11T06:57:41.170Z,15.26
2022-09-11T07:02:48.581Z,15.19
2022-09-11T07:07:54.297Z,15.17
2022-09-11T07:12:57.941Z,15.21
2022-09-11T07:18:02.101Z,15.23
2022-09-11T07:23:07.481Z,15.20
2022-09-11T07:28:12.412Z,15.20
2022-09-11T07:33:16.220Z,15.15
2022-09-11T07:38:20.877Z,15.15
2022-09-11T07:43:23.904Z,15.11
2022-09-11T07:48:26.594Z,15.24
2022-09-11T07:53:33.389Z,15.25
2022-09-11T07:58:38.167Z,15.26
2022-09-11T08:03:43.053Z,15.19
2022-09-11T08:08:47.544Z,15.23
2022-09-11T08:13:51.996Z,15.27
2022-09-11T08:18:56.943Z,15.33
2022-09-11T08:24:01.006Z,15.39
2022-09-11T08:29:03.840Z,15.51
2022-09-11T08:34:08.137Z,15.59
2022-09-11T08:39:12.593Z,15.60
2022-09-11T08:44:24.483Z,15.64
2022-09-11T08:49:35.781Z,15.69
2022-09-11T08:54:42.014Z,15.76
2022-09-11T09:00:02.145Z,15.78
2022-09-11T09:05:22.204Z,15.77
2022-09-11T09:10:36.581Z,15.74
2022-09-11T09:15:46.342Z,15.70
2022-09-11T09:21:00.909Z,15.67
2022-09-11T09:26:05.322Z,15.75
2022-09-11T09:31:10.880Z,15.76
2022-09-11T09:36:17.390Z,15.76
2022-09-11T09:41:37.547Z,15.72
2022-09-11T09:46:45.511Z,15.76
2022-09-11T09:51:52.384Z,15.82
2022-09-11T09:56:58.493Z,15.85
2022-09-11T10:02:01.208Z,15.87
2022-09-11T10:07:10.664Z,15.86
2022-09-11T10:12:18.713Z,15.86
2022-09-11T10:17:23.757Z,15.90
2022-09-11T10:22:31.217Z,15.93
2022-09-11T10:27:36.663Z,15.85
2022-09-11T10:32:42.349Z,15.79
2022-09-11T10:37:45.157Z,15.75
2022-09-11T10:42:50.323Z,15.76
2022-09-11T10:47:53.371Z,15.80
2022-09-11T10:53:06.973Z,15.78
2022-09-11T10:58:14.549Z,16.03
2022-09-11T11:03:19.211Z,16.09
2022-09-11T11:08:48.081Z,16.24
2022-09-11T11:14:08.697Z,16.35
2022-09-11T11:19:29.431Z,16.16
2022-09-11T11:24:42.033Z,16.08
2022-09-11T11:30:00.610Z,15.88
2022-09-11T11:35:19.496Z,15.75
2022-09-11T11:40:28.062Z,15.67
2022-09-11T11:45:34.893Z,15.69
2022-09-11T11:50:42.074Z,15.74
2022-09-11T11:55:52.227Z,15.72
2022-09-11T12:01:00.081Z,15.83
2022-09-11T12:06:03.080Z,16.09
2022-09-11T12:11:07.618Z,16.29
2022-09-11T12:16:15.896Z,16.11
2022-09-11T12:21:39.269Z,16.10
2022-09-11T12:26:42.036Z,16.23
2022-09-11T12:32:18.095Z,17.01
2022-09-11T12:37:27.554Z,17.07
2022-09-11T12:42:57.585Z,16.92
2022-09-11T12:48:07.947Z,17.00
2022-09-11T12:53:18.166Z,17.06
2022-09-11T12:58:28.507Z,18.04
2022-09-11T13:03:31.289Z,18.93
2022-09-11T13:08:38.733Z,19.77
2022-09-11T13:13:45.090Z,20.62
2022-09-11T13:18:48.235Z,21.16
2022-09-11T13:23:52.358Z,21.55
2022-09-11T13:28:56.720Z,21.35
2022-09-11T13:34:00.108Z,21.31
2022-09-11T13:39:04.909Z,21.70
2022-09-11T13:44:11.273Z,21.70
2022-09-11T13:49:28.901Z,20.63
2022-09-11T13:54:35.125Z,21.25
2022-09-11T13:59:39.728Z,20.43
2022-09-11T14:04:43.594Z,20.59
2022-09-11T14:09:52.926Z,21.66
2022-09-11T14:14:58.309Z,21.94
2022-09-11T14:20:01.639Z,20.56
2022-09-11T14:25:20.716Z,20.98
2022-09-11T14:30:31.488Z,21.82
2022-09-11T14:35:37.640Z,22.22
2022-09-11T14:40:47.134Z,22.03
2022-09-11T14:45:50.535Z,22.15
2022-09-11T14:50:53.291Z,22.21
2022-09-11T14:55:58.706Z,20.59
2022-09-11T15:01:02.311Z,21.10
2022-09-11T15:06:05.135Z,21.80
2022-09-11T15:11:09.273Z,22.18
2022-09-11T15:16:11.967Z,23.06
2022-09-11T15:21:14.922Z,22.12
2022-09-11T15:26:18.890Z,22.32
2022-09-11T15:31:23.429Z,22.70
2022-09-11T15:36:26.413Z,21.83
2022-09-11T15:41:30.983Z,20.96
2022-09-11T15:46:33.646Z,20.89
2022-09-11T15:51:36.255Z,21.02
2022-09-11T15:56:40.283Z,20.71
2022-09-11T16:01:44.404Z,20.45
2022-09-11T16:06:49.046Z,20.17
2022-09-11T16:11:54.440Z,19.98
2022-09-11T16:16:58.376Z,19.31
2022-09-11T16:22:02.650Z,19.18
2022-09-11T16:27:07.926Z,19.15
2022-09-11T16:32:10.498Z,19.14
2022-09-11T16:37:13.195Z,19.08
2022-09-11T16:42:21.244Z,19.01
2022-09-11T16:47:24.106Z,18.88
2022-09-11T16:52:27.779Z,18.77
2022-09-11T16:57:32.504Z,18.67
2022-09-11T17:02:35.273Z,18.57
2022-09-11T17:07:37.974Z,18.34
2022-09-11T17:12:42.140Z,18.23
2022-09-11T17:17:44.742Z,17.93
2022-09-11T17:22:47.340Z,17.74
2022-09-11T17:27:51.556Z,17.62
2022-09-11T17:32:54.232Z,17.57
2022-09-11T17:37:57.124Z,17.54
2022-09-11T17:43:01.082Z,17.52
2022-09-11T17:48:03.715Z,17.42
2022-09-11T17:53:06.812Z,17.41
2022-09-11T17:58:11.067Z,17.39
2022-09-11T18:03:14.982Z,17.34
2022-09-11T18:08:17.676Z,17.20
2022-09-11T18:13:22.448Z,17.08
2022-09-11T18:18:25.538Z,17.01
2022-09-11T18:23:29.677Z,17.01
2022-09-11T18:28:33.936Z,17.05
2022-09-11T18:33:36.550Z,17.13
2022-09-11T18:38:40.170Z,17.21
2022-09-11T18:43:44.259Z,17.20
2022-09-11T18:48:48.411Z,17.25
2022-09-11T18:53:52.416Z,17.30
2022-09-11T18:58:56.856Z,17.23
2022-09-11T19:04:00.219Z,17.21
2022-09-11T19:09:03.013Z,17.25
2022-09-11T19:14:08.463Z,17.18
2022-09-11T19:19:11.271Z,17.09
2022-09-11T19:24:13.974Z,17.03
2022-09-11T19:29:20.134Z,16.95
2022-09-11T19:34:24.402Z,16.87
2022-09-11T19:39:27.437Z,16.78
2022-09-11T19:44:34.297Z,16.73
2022-09-11T19:49:37.377Z,16.65
2022-09-11T19:54:39.993Z,16.46
2022-09-11T19:59:44.008Z,16.44
2022-09-11T20:04:46.635Z,16.43
2022-09-11T20:09:50.122Z,16.38
2022-09-11T20:14:54.090Z,16.35
2022-09-11T20:19:56.663Z,16.28
2022-09-11T20:25:00.479Z,16.18
2022-09-11T20:30:05.087Z,16.15
2022-09-11T20:35:08.587Z,16.12
2022-09-11T20:40:12.556Z,15.99
2022-09-11T20:45:16.766Z,15.95
2022-09-11T20:50:19.855Z,15.79
2022-09-11T20:55:22.504Z,15.75
2022-09-11T21:00:26.430Z,15.84
2022-09-11T21:05:29.048Z,15.78
2022-09-11T21:10:31.687Z,15.64
2022-09-11T21:15:35.606Z,15.54
2022-09-11T21:20:38.667Z,15.52
2022-09-11T21:25:41.371Z,15.48
2022-09-11T21:30:45.344Z,15.57
2022-09-11T21:35:52.767Z,15.65
2022-09-11T21:40:55.515Z,15.75
2022-09-11T21:45:59.475Z,15.73
2022-09-11T21:51:06.221Z,15.66
2022-09-11T21:56:17.024Z,15.66
2022-09-11T22:01:21.679Z,15.51
2022-09-11T22:06:24.900Z,15.46
2022-09-11T22:11:28.131Z,15.51
2022-09-11T22:16:33.005Z,15.68
2022-09-11T22:21:35.830Z,15.75
2022-09-11T22:26:38.484Z,15.77
2022-09-11T22:31:42.445Z,15.75
2022-09-11T22:36:45.236Z,15.69
2022-09-11T22:41:47.894Z,15.60
2022-09-11T22:46:52.184Z,15.47
2022-09-11T22:51:54.813Z,15.65
2022-09-11T22:56:57.496Z,15.79
2022-09-11T23:02:01.511Z,15.82
2022-09-11T23:07:16.920Z,15.81
2022-09-11T23:12:19.539Z,15.77
2022-09-11T23:17:23.500Z,15.76
2022-09-11T23:22:27.379Z,15.86
2022-09-11T23:27:30.103Z,15.80
2022-09-11T23:32:35.919Z,15.62
2022-09-11T23:37:45.287Z,15.50
2022-09-11T23:42:48.315Z,15.62
2022-09-11T23:47:52.336Z,15.70
2022-09-11T23:52:54.990Z,15.59
2022-09-11T23:57:57.595Z,15.48
